Meteorological Messages

Meteorological Service

SAGG41 UGTB 242030

Local validity Period 25 May 00:30 : 25 May 01:00
GG UGTBMAIL
242034 UGTBYMYX
SAGG41 UGTB 242030
METAR UGAM 242030Z AUTO 10007KT 070V130 //// ////// 16/11 Q1015=
METAR UGMS 242030Z AUTO 09003KT 050V120 //// ////// 10/07 Q1019=

SAGG31 UGTB 242030

Local validity Period 25 May 00:30 : 25 May 01:00
GG UGTBMAIL
242034 UGTBYMYX
SAGG31 UGTB 242030
METAR UGKO 242030Z AUTO 07028G40KT CAVOK 19/11 Q1009 NOSIG=
METAR UGSB 242030Z VRB02KT CAVOK 17/15 Q1010 NOSIG=
METAR UGTB 242030Z 08006KT 7000 -SHRA FEW018 BKN022CB 14/13 Q1020
NOSIG=

FTGG31 UGTB 241700

Local validity Period 24 May 22:00 : 25 May 22:00
GG UGTBMAIL
241704 UGTBYMYX
FTGG31 UGTB 241700
TAF UGKO 241700Z 2418/2518 08035G51KT 9999 SCT070 TX25/2511Z
TN18/2422Z TEMPO 2418/2420 26010KT 5000 SHRA BKN020CB OVC050 TEMPO
2420/2424 08025G44KT TEMPO 2502/2508 CAVOK=
TAF UGSB 241700Z 2418/2518 14007KT 9999 SCT020 BKN040 TX21/2512Z
TN16/2502Z TEMPO 2418/2422 23010KT SHRA SCT010 BKN020CB PROB40
TEMPO 2418/2421 TS TEMPO 2422/2504 4000 RA BR BKN007 OVC025 BECMG
2506/2507 27010KT=
TAF UGTB 241700Z 2418/2518 VRB02KT 9999 BKN060 TX17/2512Z TN12/2502Z
TEMPO 2419/2501 VRB21KT TSRA SCT014 BKN020CB BECMG 2503/2505 15010KT
TEMPO 2506/2512 SHRA SCT009 BKN015CB TEMPO 2515/2518 TSRA BKN014CB=